Terminal Aerodrome Forecast
Issued by NWS Binghamton, NY

Home | Current Version | Previous Version | Text Only | Print | Product List | Glossary On
Versions: 1 2 3 4 5 6 7 8 9 10 11 12 13 14 15 16 17 18 19 20 21 22 23
000
FTUS41 KBGM 261401 AAB
TAFBGM
TAF AMD
KBGM 261401Z 2614/2712 29012G22KT P6SM -SHSN SCT025 BKN035
      TEMPO 2614/2616 3SM -SHSN BR OVC025
     FM261800 29010KT P6SM BKN040
     FM270000 26006KT P6SM SCT150=

USA.gov is the U.S. government's official web portal to all federal, state and local government web resources and services.